sensor_id;sensor_type;location;lat;lon;timestamp;pressure;altitude;pressure_sealevel;temperature;humidity
6833;BME280;3454;42.654;23.378;2023-09-07T00:00:47;65061.22;;;19.79;100.00
6833;BME280;3454;42.654;23.378;2023-09-07T00:03:15;65057.16;;;19.73;100.00
6833;BME280;3454;42.654;23.378;2023-09-07T00:05:41;65049.06;;;19.68;100.00
6833;BME280;3454;42.654;23.378;2023-09-07T00:08:07;65045.41;;;19.67;100.00
6833;BME280;3454;42.654;23.378;2023-09-07T00:10:33;65053.47;;;19.72;100.00
6833;BME280;3454;42.654;23.378;2023-09-07T00:13:04;65051.06;;;19.68;100.00
6833;BME280;3454;42.654;23.378;2023-09-07T00:15:32;65034.72;;;19.55;100.00
6833;BME280;3454;42.654;23.378;2023-09-07T00:18:00;65028.28;;;19.52;100.00
6833;BME280;3454;42.654;23.378;2023-09-07T00:20:26;65044.28;;;19.66;100.00
6833;BME280;3454;42.654;23.378;2023-09-07T00:22:51;65035.81;;;19.56;100.00
6833;BME280;3454;42.654;23.378;2023-09-07T00:25:17;65033.59;;;19.54;100.00
6833;BME280;3454;42.654;23.378;2023-09-07T00:27:42;65030.31;;;19.51;100.00
6833;BME280;3454;42.654;23.378;2023-09-07T00:30:08;65026.06;;;19.50;100.00
6833;BME280;3454;42.654;23.378;2023-09-07T00:32:36;65012.06;;;19.35;100.00
6833;BME280;3454;42.654;23.378;2023-09-07T00:35:02;65005.97;;;19.29;100.00
6833;BME280;3454;42.654;23.378;2023-09-07T00:37:28;65010.63;;;19.36;100.00
6833;BME280;3454;42.654;23.378;2023-09-07T00:39:54;65006.72;;;19.32;100.00
6833;BME280;3454;42.654;23.378;2023-09-07T00:42:19;65005.97;;;19.29;100.00
6833;BME280;3454;42.654;23.378;2023-09-07T00:44:44;65010.44;;;19.33;100.00
6833;BME280;3454;42.654;23.378;2023-09-07T00:47:10;65013.16;;;19.36;100.00
6833;BME280;3454;42.654;23.378;2023-09-07T00:49:37;65008.19;;;19.31;100.00
6833;BME280;3454;42.654;23.378;2023-09-07T00:52:05;65014.84;;;19.37;100.00
6833;BME280;3454;42.654;23.378;2023-09-07T00:54:31;65007.63;;;19.31;100.00
6833;BME280;3454;42.654;23.378;2023-09-07T00:56:57;65019.25;;;19.41;100.00
6833;BME280;3454;42.654;23.378;2023-09-07T00:59:22;65026.75;;;19.46;100.00
6833;BME280;3454;42.654;23.378;2023-09-07T01:01:48;65022.56;;;19.44;100.00
6833;BME280;3454;42.654;23.378;2023-09-07T01:04:14;65029.19;;;19.50;100.00
6833;BME280;3454;42.654;23.378;2023-09-07T01:06:45;65025.31;;;19.47;100.00
6833;BME280;3454;42.654;23.378;2023-09-07T01:09:20;65020.00;;;19.44;100.00
6833;BME280;3454;42.654;23.378;2023-09-07T01:11:47;65024.41;;;19.48;100.00
6833;BME280;3454;42.654;23.378;2023-09-07T01:14:13;65026.75;;;19.46;100.00
6833;BME280;3454;42.654;23.378;2023-09-07T01:16:38;65032.50;;;19.53;100.00
6833;BME280;3454;42.654;23.378;2023-09-07T01:19:08;65023.69;;;19.45;100.00
6833;BME280;3454;42.654;23.378;2023-09-07T01:21:36;65015.38;;;19.38;100.00
6833;BME280;3454;42.654;23.378;2023-09-07T01:24:07;65025.88;;;19.47;100.00
6833;BME280;3454;42.654;23.378;2023-09-07T01:26:34;65021.25;;;19.41;100.00
6833;BME280;3454;42.654;23.378;2023-09-07T01:29:01;65019.78;;;19.42;100.00
6833;BME280;3454;42.654;23.378;2023-09-07T01:31:26;65022.91;;;19.42;100.00
6833;BME280;3454;42.654;23.378;2023-09-07T01:33:51;65009.53;;;19.35;100.00
6833;BME280;3454;42.654;23.378;2023-09-07T01:36:17;65015.94;;;19.38;100.00
6833;BME280;3454;42.654;23.378;2023-09-07T01:38:42;65012.63;;;19.35;100.00
6833;BME280;3454;42.654;23.378;2023-09-07T01:41:08;65010.44;;;19.33;100.00
6833;BME280;3454;42.654;23.378;2023-09-07T01:43:35;65011.16;;;19.36;100.00
6833;BME280;3454;42.654;23.378;2023-09-07T01:46:00;65007.63;;;19.31;100.00
6833;BME280;3454;42.654;23.378;2023-09-07T01:48:26;65005.97;;;19.29;100.00
6833;BME280;3454;42.654;23.378;2023-09-07T01:50:54;65003.75;;;19.27;100.00
6833;BME280;3454;42.654;23.378;2023-09-07T01:53:20;65017.94;;;19.38;100.00
6833;BME280;3454;42.654;23.378;2023-09-07T01:55:46;65011.16;;;19.36;100.00
6833;BME280;3454;42.654;23.378;2023-09-07T01:58:13;65015.38;;;19.38;100.00
6833;BME280;3454;42.654;23.378;2023-09-07T02:00:38;65015.59;;;19.40;100.00
6833;BME280;3454;42.654;23.378;2023-09-07T02:03:05;65018.16;;;19.40;100.00
6833;BME280;3454;42.654;23.378;2023-09-07T02:05:30;65020.00;;;19.44;100.00
6833;BME280;3454;42.654;23.378;2023-09-07T02:07:58;65025.31;;;19.47;100.00
6833;BME280;3454;42.654;23.378;2023-09-07T02:10:24;65018.16;;;19.40;100.00
6833;BME280;3454;42.654;23.378;2023-09-07T02:12:49;65013.38;;;19.38;100.00
6833;BME280;3454;42.654;23.378;2023-09-07T02:15:15;65022.91;;;19.42;100.00
6833;BME280;3454;42.654;23.378;2023-09-07T02:17:41;65021.81;;;19.41;100.00
6833;BME280;3454;42.654;23.378;2023-09-07T02:20:13;65025.31;;;19.47;100.00
6833;BME280;3454;42.654;23.378;2023-09-07T02:22:39;65033.59;;;19.54;100.00
6833;BME280;3454;42.654;23.378;2023-09-07T02:25:05;65020.00;;;19.44;100.00
6833;BME280;3454;42.654;23.378;2023-09-07T02:27:32;65018.16;;;19.40;100.00
6833;BME280;3454;42.654;23.378;2023-09-07T02:29:58;65010.44;;;19.33;100.00
6833;BME280;3454;42.654;23.378;2023-09-07T02:32:24;65011.72;;;19.37;100.00
6833;BME280;3454;42.654;23.378;2023-09-07T02:34:49;65008.19;;;19.31;100.00
6833;BME280;3454;42.654;23.378;2023-09-07T02:37:15;65008.97;;;19.34;100.00
6833;BME280;3454;42.654;23.378;2023-09-07T02:39:42;65020.69;;;19.40;100.00
6833;BME280;3454;42.654;23.378;2023-09-07T02:42:07;65013.38;;;19.38;100.00
6833;BME280;3454;42.654;23.378;2023-09-07T02:44:32;65011.84;;;19.32;100.00
6833;BME280;3454;42.654;23.378;2023-09-07T02:46:58;65009.28;;;19.32;100.00
6833;BME280;3454;42.654;23.378;2023-09-07T02:49:24;65013.72;;;19.36;100.00
6833;BME280;3454;42.654;23.378;2023-09-07T02:51:49;65014.50;;;19.39;100.00
6833;BME280;3454;42.654;23.378;2023-09-07T02:54:15;65021.47;;;19.43;100.00
6833;BME280;3454;42.654;23.378;2023-09-07T02:56:40;65007.88;;;19.33;100.00
6833;BME280;3454;42.654;23.378;2023-09-07T02:59:05;65008.72;;;19.32;100.00
6833;BME280;3454;42.654;23.378;2023-09-07T03:01:31;65010.97;;;19.34;100.00
6833;BME280;3454;42.654;23.378;2023-09-07T03:03:57;65014.28;;;19.37;100.00
6833;BME280;3454;42.654;23.378;2023-09-07T03:06:22;65009.28;;;19.32;100.00
6833;BME280;3454;42.654;23.378;2023-09-07T03:08:48;65015.59;;;19.40;100.00
6833;BME280;3454;42.654;23.378;2023-09-07T03:11:13;65020.34;;;19.42;100.00
6833;BME280;3454;42.654;23.378;2023-09-07T03:13:40;64998.47;;;19.24;100.00
6833;BME280;3454;42.654;23.378;2023-09-07T03:16:05;64985.22;;;19.12;100.00
6833;BME280;3454;42.654;23.378;2023-09-07T03:18:31;64991.06;;;19.15;100.00
6833;BME280;3454;42.654;23.378;2023-09-07T03:21:00;64990.50;;;19.15;100.00
6833;BME280;3454;42.654;23.378;2023-09-07T03:23:52;64980.94;;;19.04;100.00
6833;BME280;3454;42.654;23.378;2023-09-07T03:26:31;64974.72;;;19.03;100.00
6833;BME280;3454;42.654;23.378;2023-09-07T03:28:57;64966.44;;;18.95;100.00
6833;BME280;3454;42.654;23.378;2023-09-07T03:31:22;64975.06;;;19.01;100.00
6833;BME280;3454;42.654;23.378;2023-09-07T03:33:48;64982.59;;;19.05;100.00
6833;BME280;3454;42.654;23.378;2023-09-07T03:36:14;64982.25;;;19.07;100.00
6833;BME280;3454;42.654;23.378;2023-09-07T03:38:41;64964.59;;;18.91;100.00
6833;BME280;3454;42.654;23.378;2023-09-07T03:41:07;64968.44;;;18.95;100.00
6833;BME280;3454;42.654;23.378;2023-09-07T03:43:33;64960.16;;;18.87;100.00
6833;BME280;3454;42.654;23.378;2023-09-07T03:45:59;64965.69;;;18.92;100.00
6833;BME280;3454;42.654;23.378;2023-09-07T03:48:24;64969.56;;;18.96;100.00
6833;BME280;3454;42.654;23.378;2023-09-07T03:50:50;64963.28;;;18.88;100.00
6833;BME280;3454;42.654;23.378;2023-09-07T03:53:15;64959.28;;;18.89;100.00
6833;BME280;3454;42.654;23.378;2023-09-07T03:55:42;64955.19;;;18.83;100.00
6833;BME280;3454;42.654;23.378;2023-09-07T03:58:09;64968.44;;;18.95;100.00
6833;BME280;3454;42.654;23.378;2023-09-07T04:00:38;64961.81;;;18.89;100.00
6833;BME280;3454;42.654;23.378;2023-09-07T04:03:04;64954.66;;;18.82;100.00
6833;BME280;3454;42.654;23.378;2023-09-07T04:05:29;64964.59;;;18.91;100.00
6833;BME280;3454;42.654;23.378;2023-09-07T04:07:55;64963.84;;;18.88;100.00
6833;BME280;3454;42.654;23.378;2023-09-07T04:10:20;64958.53;;;18.86;100.00
6833;BME280;3454;42.654;23.378;2023-09-07T04:12:46;64964.03;;;18.91;100.00
6833;BME280;3454;42.654;23.378;2023-09-07T04:15:11;64968.44;;;18.95;100.00
6833;BME280;3454;42.654;23.378;2023-09-07T04:17:37;64978.38;;;19.04;100.00
6833;BME280;3454;42.654;23.378;2023-09-07T04:20:09;64979.47;;;19.05;100.00
6833;BME280;3454;42.654;23.378;2023-09-07T04:22:39;64974.19;;;19.02;100.00
6833;BME280;3454;42.654;23.378;2023-09-07T04:25:06;64974.53;;;19.00;100.00
6833;BME280;3454;42.654;23.378;2023-09-07T04:27:31;64980.81;;;19.08;100.00
6833;BME280;3454;42.654;23.378;2023-09-07T04:29:57;64977.28;;;19.03;100.00
6833;BME280;3454;42.654;23.378;2023-09-07T04:32:22;64978.19;;;19.01;100.00
6833;BME280;3454;42.654;23.378;2023-09-07T04:34:53;64967.00;;;18.96;100.00
6833;BME280;3454;42.654;23.378;2023-09-07T04:37:19;64977.81;;;19.03;100.00
6833;BME280;3454;42.654;23.378;2023-09-07T04:39:45;64962.03;;;18.91;100.00
6833;BME280;3454;42.654;23.378;2023-09-07T04:42:10;64969.00;;;18.95;100.00
6833;BME280;3454;42.654;23.378;2023-09-07T04:44:35;64970.84;;;18.99;100.00
6833;BME280;3454;42.654;23.378;2023-09-07T04:47:01;65000.81;;;19.22;100.00
6833;BME280;3454;42.654;23.378;2023-09-07T04:49:27;65011.16;;;19.36;100.00
6833;BME280;3454;42.654;23.378;2023-09-07T04:51:53;65022.00;;;19.44;100.00
6833;BME280;3454;42.654;23.378;2023-09-07T04:54:19;65018.16;;;19.40;100.00
6833;BME280;3454;42.654;23.378;2023-09-07T04:56:45;65018.16;;;19.40;100.00
6833;BME280;3454;42.654;23.378;2023-09-07T04:59:44;65026.63;;;19.50;100.00
6833;BME280;3454;42.654;23.378;2023-09-07T05:05:11;65054.59;;;19.73;100.00
6833;BME280;3454;42.654;23.378;2023-09-07T05:07:36;65115.00;;;20.31;100.00
6833;BME280;3454;42.654;23.378;2023-09-07T05:10:02;65144.84;;;20.58;100.00
6833;BME280;3454;42.654;23.378;2023-09-07T05:12:28;65145.94;;;20.59;100.00
6833;BME280;3454;42.654;23.378;2023-09-07T05:14:54;65176.16;;;20.84;100.00
6833;BME280;3454;42.654;23.378;2023-09-07T05:17:19;65166.41;;;20.77;100.00
6833;BME280;3454;42.654;23.378;2023-09-07T05:19:45;65169.16;;;20.80;100.00
6833;BME280;3454;42.654;23.378;2023-09-07T05:22:10;65177.81;;;20.85;100.00
6833;BME280;3454;42.654;23.378;2023-09-07T05:24:38;65197.94;;;21.06;100.00
6833;BME280;3454;42.654;23.378;2023-09-07T05:27:04;65178.00;;;20.88;100.00
6833;BME280;3454;42.654;23.378;2023-09-07T05:29:30;65168.41;;;20.77;100.00
6833;BME280;3454;42.654;23.378;2023-09-07T05:31:55;65136.53;;;20.50;100.00
6833;BME280;3454;42.654;23.378;2023-09-07T05:34:21;65119.78;;;20.33;100.00
6833;BME280;3454;42.654;23.378;2023-09-07T05:36:48;65102.06;;;20.17;100.00
6833;BME280;3454;42.654;23.378;2023-09-07T05:39:13;65070.78;;;19.90;100.00
6833;BME280;3454;42.654;23.378;2023-09-07T05:41:39;65065.28;;;19.85;100.00
6833;BME280;3454;42.654;23.378;2023-09-07T05:44:04;65063.44;;;19.81;100.00
6833;BME280;3454;42.654;23.378;2023-09-07T05:46:37;65053.69;;;19.75;100.00
6833;BME280;3454;42.654;23.378;2023-09-07T05:49:02;65062.53;;;19.83;100.00
6833;BME280;3454;42.654;23.378;2023-09-07T05:51:28;65047.97;;;19.67;100.00
6833;BME280;3454;42.654;23.378;2023-09-07T05:53:54;65051.28;;;19.70;100.00
6833;BME280;3454;42.654;23.378;2023-09-07T05:56:20;65039.88;;;19.62;100.00
6833;BME280;3454;42.654;23.378;2023-09-07T05:58:46;65031.03;;;19.54;100.00
6833;BME280;3454;42.654;23.378;2023-09-07T06:01:11;65041.34;;;19.61;100.00
6833;BME280;3454;42.654;23.378;2023-09-07T06:03:37;65064.16;;;19.84;100.00
6833;BME280;3454;42.654;23.378;2023-09-07T06:06:04;65052.56;;;19.74;100.00
6833;BME280;3454;42.654;23.378;2023-09-07T06:08:30;65056.25;;;19.75;100.00
6833;BME280;3454;42.654;23.378;2023-09-07T06:10:55;65053.69;;;19.75;100.00
6833;BME280;3454;42.654;23.378;2023-09-07T06:13:21;65064.53;;;19.82;100.00
6833;BME280;3454;42.654;23.378;2023-09-07T06:15:46;65086.25;;;20.04;100.00
6833;BME280;3454;42.654;23.378;2023-09-07T06:18:11;65132.69;;;20.47;100.00
6833;BME280;3454;42.654;23.378;2023-09-07T06:20:37;65164.53;;;20.73;100.00
6833;BME280;3454;42.654;23.378;2023-09-07T06:23:03;65166.53;;;20.73;100.00
6833;BME280;3454;42.654;23.378;2023-09-07T06:25:29;65166.94;;;20.78;100.00
6833;BME280;3454;42.654;23.378;2023-09-07T06:27:55;65179.09;;;20.89;100.00
6833;BME280;3454;42.654;23.378;2023-09-07T06:30:20;65208.22;;;21.13;100.00
6833;BME280;3454;42.654;23.378;2023-09-07T06:32:45;65217.84;;;21.24;100.00
6833;BME280;3454;42.654;23.378;2023-09-07T06:35:12;65205.31;;;21.15;100.00
6833;BME280;3454;42.654;23.378;2023-09-07T06:37:38;65206.78;;;21.14;100.00
6833;BME280;3454;42.654;23.378;2023-09-07T06:40:07;65203.78;;;21.09;100.00
6833;BME280;3454;42.654;23.378;2023-09-07T06:42:32;65199.03;;;21.07;100.00
6833;BME280;3454;42.654;23.378;2023-09-07T06:44:57;65205.66;;;21.13;100.00
6833;BME280;3454;42.654;23.378;2023-09-07T06:47:24;65201.22;;;21.09;100.00
6833;BME280;3454;42.654;23.378;2023-09-07T06:49:49;65208.22;;;21.13;100.00
6833;BME280;3454;42.654;23.378;2023-09-07T06:52:15;65218.19;;;21.22;100.00
6833;BME280;3454;42.654;23.378;2023-09-07T06:54:41;65227.59;;;21.31;100.00
6833;BME280;3454;42.654;23.378;2023-09-07T06:57:09;65207.34;;;21.15;100.00
6833;BME280;3454;42.654;23.378;2023-09-07T06:59:35;65218.94;;;21.25;100.00
6833;BME280;3454;42.654;23.378;2023-09-07T07:02:00;65236.44;;;21.39;100.00
6833;BME280;3454;42.654;23.378;2023-09-07T07:04:26;65256.00;;;21.59;100.00
6833;BME280;3454;42.654;23.378;2023-09-07T07:06:52;65277.91;;;21.77;100.00
6833;BME280;3454;42.654;23.378;2023-09-07T07:09:17;65279.78;;;21.81;100.00
6833;BME280;3454;42.654;23.378;2023-09-07T07:11:42;65303.03;;;22.02;100.00
6833;BME280;3454;42.654;23.378;2023-09-07T07:14:08;65311.34;;;22.09;97.86
6833;BME280;3454;42.654;23.378;2023-09-07T07:16:34;65297.84;;;21.95;98.95
6833;BME280;3454;42.654;23.378;2023-09-07T07:19:00;65290.31;;;21.90;100.00
6833;BME280;3454;42.654;23.378;2023-09-07T07:21:25;65290.31;;;21.90;97.14
6833;BME280;3454;42.654;23.378;2023-09-07T07:23:51;65267.59;;;21.69;96.58
6833;BME280;3454;42.654;23.378;2023-09-07T07:26:17;65256.88;;;21.57;98.98
6833;BME280;3454;42.654;23.378;2023-09-07T07:28:43;65256.53;;;21.59;100.00
6833;BME280;3454;42.654;23.378;2023-09-07T07:31:09;65260.06;;;21.65;97.78
6833;BME280;3454;42.654;23.378;2023-09-07T07:33:35;65260.56;;;21.58;97.34
6833;BME280;3454;42.654;23.378;2023-09-07T07:36:03;65262.06;;;21.64;93.73
6833;BME280;3454;42.654;23.378;2023-09-07T07:38:29;65262.44;;;21.62;100.00
6833;BME280;3454;42.654;23.378;2023-09-07T07:40:54;65269.81;;;21.71;97.87
6833;BME280;3454;42.654;23.378;2023-09-07T07:43:20;65269.81;;;21.71;100.00
6833;BME280;3454;42.654;23.378;2023-09-07T07:45:46;65272.00;;;21.73;92.90
6833;BME280;3454;42.654;23.378;2023-09-07T07:48:12;65273.13;;;21.74;92.59
6833;BME280;3454;42.654;23.378;2023-09-07T07:50:39;65269.44;;;21.73;93.71
6833;BME280;3454;42.654;23.378;2023-09-07T07:53:05;65281.22;;;21.80;96.57
6833;BME280;3454;42.654;23.378;2023-09-07T07:55:34;65284.22;;;21.85;96.12
6833;BME280;3454;42.654;23.378;2023-09-07T07:58:05;65288.22;;;21.84;94.67
6833;BME280;3454;42.654;23.378;2023-09-07T08:00:31;65273.69;;;21.75;94.27
6833;BME280;3454;42.654;23.378;2023-09-07T08:02:56;65287.53;;;21.88;94.52
6833;BME280;3454;42.654;23.378;2023-09-07T08:05:22;65294.19;;;21.94;96.51
6833;BME280;3454;42.654;23.378;2023-09-07T08:07:47;65300.28;;;21.99;97.74
6833;BME280;3454;42.654;23.378;2023-09-07T08:10:12;65305.78;;;22.04;97.64
6833;BME280;3454;42.654;23.378;2023-09-07T08:12:38;65298.06;;;21.97;90.99
6833;BME280;3454;42.654;23.378;2023-09-07T08:15:04;65308.91;;;22.05;91.34
6833;BME280;3454;42.654;23.378;2023-09-07T08:17:30;65310.78;;;22.09;96.39
6833;BME280;3454;42.654;23.378;2023-09-07T08:19:55;65319.06;;;22.16;100.00
6833;BME280;3454;42.654;23.378;2023-09-07T08:22:22;65342.31;;;22.37;100.00
6833;BME280;3454;42.654;23.378;2023-09-07T08:24:48;65364.50;;;22.58;94.76
6833;BME280;3454;42.654;23.378;2023-09-07T08:27:14;65382.19;;;22.74;98.28
6833;BME280;3454;42.654;23.378;2023-09-07T08:29:44;65395.69;;;22.88;87.14
6833;BME280;3454;42.654;23.378;2023-09-07T08:32:12;65401.56;;;22.91;89.95
6833;BME280;3454;42.654;23.378;2023-09-07T08:34:39;65407.47;;;22.94;85.40
6833;BME280;3454;42.654;23.378;2023-09-07T08:37:07;65388.50;;;22.82;94.32
6833;BME280;3454;42.654;23.378;2023-09-07T08:39:35;65391.63;;;22.82;79.31
6833;BME280;3454;42.654;23.378;2023-09-07T08:42:01;65377.78;;;22.70;86.36
6833;BME280;3454;42.654;23.378;2023-09-07T08:44:29;65376.28;;;22.71;91.17
6833;BME280;3454;42.654;23.378;2023-09-07T08:46:55;65371.13;;;22.64;79.77
6833;BME280;3454;42.654;23.378;2023-09-07T08:49:22;65368.34;;;22.61;87.01
6833;BME280;3454;42.654;23.378;2023-09-07T08:51:50;65369.47;;;22.62;89.87
6833;BME280;3454;42.654;23.378;2023-09-07T08:54:17;65375.56;;;22.68;80.72
6833;BME280;3454;42.654;23.378;2023-09-07T08:56:45;65393.84;;;22.84;91.20
6833;BME280;3454;42.654;23.378;2023-09-07T08:59:11;65401.22;;;22.93;89.38
6833;BME280;3454;42.654;23.378;2023-09-07T09:01:36;65406.22;;;22.98;89.79
6833;BME280;3454;42.654;23.378;2023-09-07T09:04:02;65444.22;;;23.30;86.54
6833;BME280;3454;42.654;23.378;2023-09-07T09:06:28;65468.41;;;23.50;76.39
6833;BME280;3454;42.654;23.378;2023-09-07T09:08:56;65499.66;;;23.80;76.98
6833;BME280;3454;42.654;23.378;2023-09-07T09:11:24;65521.13;;;24.04;73.72
6833;BME280;3454;42.654;23.378;2023-09-07T09:13:51;65554.19;;;24.32;73.18
6833;BME280;3454;42.654;23.378;2023-09-07T09:16:17;65574.16;;;24.50;73.12
6833;BME280;3454;42.654;23.378;2023-09-07T09:21:19;65629.09;;;25.00;67.27
6833;BME280;3454;42.654;23.378;2023-09-07T09:23:50;65624.44;;;24.93;65.79
6833;BME280;3454;42.654;23.378;2023-09-07T09:26:17;65627.78;;;24.96;62.08
6833;BME280;3454;42.654;23.378;2023-09-07T09:28:44;65602.81;;;24.74;62.65
6833;BME280;3454;42.654;23.378;2023-09-07T09:31:14;65578.97;;;24.52;65.30
6833;BME280;3454;42.654;23.378;2023-09-07T09:33:41;65596.34;;;24.70;63.83
6833;BME280;3454;42.654;23.378;2023-09-07T09:36:07;65598.38;;;24.70;68.90
6833;BME280;3454;42.654;23.378;2023-09-07T09:38:33;65603.94;;;24.75;66.62
6833;BME280;3454;42.654;23.378;2023-09-07T09:41:00;65601.16;;;24.72;63.33
6833;BME280;3454;42.654;23.378;2023-09-07T09:43:26;65601.16;;;24.72;61.55
6833;BME280;3454;42.654;23.378;2023-09-07T09:45:52;65601.91;;;24.75;62.00
6833;BME280;3454;42.654;23.378;2023-09-07T09:48:22;65576.91;;;24.53;62.54
6833;BME280;3454;42.654;23.378;2023-09-07T09:50:48;65592.44;;;24.67;66.82
6833;BME280;3454;42.654;23.378;2023-09-07T09:53:19;65563.06;;;24.40;65.49
6833;BME280;3454;42.654;23.378;2023-09-07T09:55:49;65586.72;;;24.59;67.46
6833;BME280;3454;42.654;23.378;2023-09-07T09:58:17;65609.47;;;24.80;63.76
6833;BME280;3454;42.654;23.378;2023-09-07T10:00:53;65567.69;;;24.47;68.91
6833;BME280;3454;42.654;23.378;2023-09-07T10:05:55;65552.31;;;24.28;69.24
6833;BME280;3454;42.654;23.378;2023-09-07T10:08:21;65557.88;;;24.33;66.71
6833;BME280;3454;42.654;23.378;2023-09-07T10:10:49;65543.09;;;24.22;65.24
6833;BME280;3454;42.654;23.378;2023-09-07T10:13:29;65546.78;;;24.23;62.57
6833;BME280;3454;42.654;23.378;2023-09-07T10:16:11;65534.59;;;24.12;68.27
6833;BME280;3454;42.654;23.378;2023-09-07T10:18:44;65534.78;;;24.14;64.41
6833;BME280;3454;42.654;23.378;2023-09-07T10:21:10;65521.25;;;24.00;66.81
6833;BME280;3454;42.654;23.378;2023-09-07T10:23:40;65517.22;;;24.01;69.33
6833;BME280;3454;42.654;23.378;2023-09-07T10:26:19;65518.69;;;24.00;69.88
6833;BME280;3454;42.654;23.378;2023-09-07T10:28:47;65525.19;;;24.03;67.79
6833;BME280;3454;42.654;23.378;2023-09-07T10:31:19;65527.41;;;24.05;66.17
6833;BME280;3454;42.654;23.378;2023-09-07T10:34:07;65542.56;;;24.22;62.87
6833;BME280;3454;42.654;23.378;2023-09-07T10:37:12;65539.22;;;24.18;70.56
6833;BME280;3454;42.654;23.378;2023-09-07T10:39:53;65531.28;;;24.09;68.18
6833;BME280;3454;42.654;23.378;2023-09-07T10:42:24;65561.19;;;24.36;68.32
6833;BME280;3454;42.654;23.378;2023-09-07T10:44:51;65561.03;;;24.41;68.30
6833;BME280;3454;42.654;23.378;2023-09-07T10:47:19;65571.59;;;24.50;68.71
6833;BME280;3454;42.654;23.378;2023-09-07T10:49:45;65588.94;;;24.61;67.27
6833;BME280;3454;42.654;23.378;2023-09-07T10:52:10;65557.31;;;24.33;63.34
6833;BME280;3454;42.654;23.378;2023-09-07T10:54:35;65569.53;;;24.44;62.54
6833;BME280;3454;42.654;23.378;2023-09-07T10:57:09;65551.97;;;24.30;66.83
6833;BME280;3454;42.654;23.378;2023-09-07T10:59:35;65558.09;;;24.36;63.19
6833;BME280;3454;42.654;23.378;2023-09-07T11:02:06;65548.66;;;24.27;63.10
6833;BME280;3454;42.654;23.378;2023-09-07T11:04:32;65541.25;;;24.18;64.98
6833;BME280;3454;42.654;23.378;2023-09-07T11:06:58;65542.00;;;24.21;62.35
6833;BME280;3454;42.654;23.378;2023-09-07T11:09:25;65522.25;;;24.05;67.09
6833;BME280;3454;42.654;23.378;2023-09-07T11:11:51;65500.22;;;23.81;66.17
6833;BME280;3454;42.654;23.378;2023-09-07T11:14:16;65499.66;;;23.80;69.05
6833;BME280;3454;42.654;23.378;2023-09-07T11:16:42;65495.78;;;23.77;66.80
6833;BME280;3454;42.654;23.378;2023-09-07T11:19:08;65489.13;;;23.71;68.81
6833;BME280;3454;42.654;23.378;2023-09-07T11:21:35;65478.03;;;23.61;72.08
6833;BME280;3454;42.654;23.378;2023-09-07T11:24:01;65478.03;;;23.61;69.90
6833;BME280;3454;42.654;23.378;2023-09-07T11:26:43;65470.84;;;23.54;71.07
6833;BME280;3454;42.654;23.378;2023-09-07T11:29:09;65487.66;;;23.72;64.91
6833;BME280;3454;42.654;23.378;2023-09-07T11:31:34;65475.84;;;23.59;64.59
6833;BME280;3454;42.654;23.378;2023-09-07T11:34:01;65483.94;;;23.64;69.83
6833;BME280;3454;42.654;23.378;2023-09-07T11:36:27;65464.94;;;23.51;71.45
6833;BME280;3454;42.654;23.378;2023-09-07T11:38:53;65480.47;;;23.65;73.73
6833;BME280;3454;42.654;23.378;2023-09-07T11:41:19;65489.69;;;23.71;67.69
6833;BME280;3454;42.654;23.378;2023-09-07T11:43:44;65463.44;;;23.45;66.26
6833;BME280;3454;42.654;23.378;2023-09-07T11:46:11;65473.81;;;23.59;67.38
6833;BME280;3454;42.654;23.378;2023-09-07T11:48:36;65467.16;;;23.53;67.58
6833;BME280;3454;42.654;23.378;2023-09-07T11:51:08;65465.50;;;23.52;66.69
6833;BME280;3454;42.654;23.378;2023-09-07T11:53:34;65450.91;;;23.36;69.36
6833;BME280;3454;42.654;23.378;2023-09-07T11:56:00;65455.31;;;23.40;66.53
6833;BME280;3454;42.654;23.378;2023-09-07T11:58:26;65468.06;;;23.52;66.67
6833;BME280;3454;42.654;23.378;2023-09-07T12:00:52;65476.38;;;23.59;66.97
6833;BME280;3454;42.654;23.378;2023-09-07T12:03:18;65465.84;;;23.50;66.78
6833;BME280;3454;42.654;23.378;2023-09-07T12:05:44;65479.69;;;23.62;65.09
6833;BME280;3454;42.654;23.378;2023-09-07T12:08:09;65476.03;;;23.61;65.33
6833;BME280;3454;42.654;23.378;2023-09-07T12:10:35;65461.97;;;23.46;66.27
6833;BME280;3454;42.654;23.378;2023-09-07T12:13:00;65441.44;;;23.27;67.09
6833;BME280;3454;42.654;23.378;2023-09-07T12:15:26;65445.34;;;23.31;66.68
6833;BME280;3454;42.654;23.378;2023-09-07T12:17:51;65459.19;;;23.44;64.53
6833;BME280;3454;42.654;23.378;2023-09-07T12:20:19;65443.13;;;23.29;65.01
6833;BME280;3454;42.654;23.378;2023-09-07T12:22:47;65432.22;;;23.21;66.45
6833;BME280;3454;42.654;23.378;2023-09-07T12:25:14;65444.09;;;23.34;65.05
6833;BME280;3454;42.654;23.378;2023-09-07T12:27:40;65428.16;;;23.15;65.12
6833;BME280;3454;42.654;23.378;2023-09-07T12:30:09;65435.72;;;23.20;64.49
6833;BME280;3454;42.654;23.378;2023-09-07T12:32:38;65422.81;;;23.13;64.70
6833;BME280;3454;42.654;23.378;2023-09-07T12:35:05;65432.59;;;23.19;65.09
6833;BME280;3454;42.654;23.378;2023-09-07T12:40:36;65428.16;;;23.15;65.85
6833;BME280;3454;42.654;23.378;2023-09-07T12:43:03;65433.72;;;23.20;65.05
6833;BME280;3454;42.654;23.378;2023-09-07T12:45:29;65429.28;;;23.16;65.61
6833;BME280;3454;42.654;23.378;2023-09-07T12:47:54;65452.75;;;23.40;62.65
6833;BME280;3454;42.654;23.378;2023-09-07T12:50:20;65471.97;;;23.55;65.08
6833;BME280;3454;42.654;23.378;2023-09-07T12:52:46;65494.66;;;23.76;61.13
6833;BME280;3454;42.654;23.378;2023-09-07T12:55:12;65501.31;;;23.82;62.92
6833;BME280;3454;42.654;23.378;2023-09-07T12:57:37;65556.41;;;24.34;61.38
6833;BME280;3454;42.654;23.378;2023-09-07T13:00:04;65565.09;;;24.40;60.40
6833;BME280;3454;42.654;23.378;2023-09-07T13:02:31;65570.84;;;24.47;60.51
6833;BME280;3454;42.654;23.378;2023-09-07T13:04:56;65578.59;;;24.54;57.85
6833;BME280;3454;42.654;23.378;2023-09-07T13:07:33;65584.50;;;24.57;58.67
6833;BME280;3454;42.654;23.378;2023-09-07T13:10:01;65590.59;;;24.63;59.60
6833;BME280;3454;42.654;23.378;2023-09-07T13:12:31;65575.63;;;24.49;59.14
6833;BME280;3454;42.654;23.378;2023-09-07T13:14:58;65593.56;;;24.68;59.24